Time;durP1;ratioP1;P1;durP2;ratioP2;P2;SDS_P1;SDS_P2;PMS_P1;PMS_P2;Temp;Humidity;BMP_temperature;BMP_pressure;BME280_temperature;BME280_humidity;BME280_pressure;Samples;Min_cycle;Max_cycle;Signal;HPM_P1;HPM_P2
2022/06/24 00:01:40;;;;;;;;;6.67;6.67;;;;;24.36;60.75;100352.09;5085712;28;45362;-76
2022/06/24 00:04:05;;;;;;;;;5.00;5.00;;;;;24.34;61.10;100349.66;5088561;27;45248;-75
2022/06/24 00:06:45;;;;;;;;;5.00;5.00;;;;;24.27;61.13;100346.44;5088068;27;45304;-75
2022/06/24 00:09:11;;;;;;;;;6.00;6.00;;;;;24.28;61.36;100357.03;5085868;28;45377;-75
2022/06/24 00:11:37;;;;;;;;;6.00;6.00;;;;;24.30;61.00;100354.81;5085599;28;45436;-74
2022/06/24 00:14:09;;;;;;;;;6.00;6.00;;;;;24.31;61.46;100359.19;5085967;28;45737;-75
2022/06/24 00:16:57;;;;;;;;;5.00;5.00;;;;;24.31;61.62;100366.50;5085686;28;46917;-74
2022/06/24 00:19:24;;;;;;;;;7.00;6.67;;;;;24.23;61.78;100354.31;5085720;28;45961;-75
2022/06/24 00:22:16;;;;;;;;;5.67;5.67;;;;;24.26;62.20;100355.66;5085548;28;45374;-75
2022/06/24 00:24:41;;;;;;;;;4.00;4.00;;;;;24.15;61.55;100352.97;5063537;28;45543;-74
2022/06/24 00:27:22;;;;;;;;;5.00;4.33;;;;;24.12;61.89;100356.19;5085317;28;45542;-75
2022/06/24 00:29:49;;;;;;;;;6.00;6.00;;;;;24.09;62.28;100351.31;5085625;28;46366;-76
2022/06/24 00:32:15;;;;;;;;;3.33;3.33;;;;;24.08;62.06;100353.25;5085159;28;45443;-75
2022/06/24 00:34:41;;;;;;;;;4.67;4.67;;;;;24.13;61.79;100363.31;5067468;28;46969;-75
2022/06/24 00:37:23;;;;;;;;;5.00;5.00;;;;;24.13;62.00;100370.59;5085402;28;45231;-75
2022/06/24 00:39:49;;;;;;;;;4.33;4.33;;;;;24.04;62.29;100354.88;5073196;28;46171;-75
2022/06/24 00:42:18;;;;;;;;;4.33;4.33;;;;;24.03;61.58;100361.38;5085175;28;45284;-76
2022/06/24 00:45:24;;;;;;;;;5.33;5.00;;;;;24.08;62.04;100371.41;5071994;28;45571;-75
2022/06/24 00:47:51;;;;;;;;;5.00;5.00;;;;;24.05;61.66;100367.34;5054299;28;45449;-75
2022/06/24 00:50:25;;;;;;;;;5.00;5.00;;;;;24.01;61.81;100366.28;5066926;28;48023;-75
2022/06/24 00:52:55;;;;;;;;;6.00;5.00;;;;;23.98;61.93;100369.53;5085326;28;45321;-75
2022/06/24 00:55:25;;;;;;;;;5.33;5.33;;;;;23.94;62.59;100360.31;5085325;28;45502;-75
2022/06/24 00:57:51;;;;;;;;;4.67;4.67;;;;;23.95;62.26;100353.81;5085115;28;45327;-75
2022/06/24 01:00:17;;;;;;;;;6.00;4.67;;;;;23.93;62.33;100347.84;5085106;28;46039;-75
2022/06/24 01:02:42;;;;;;;;;7.00;5.33;;;;;24.03;61.75;100358.66;5084806;28;45414;-75
2022/06/24 01:05:09;;;;;;;;;5.33;4.00;;;;;24.03;62.48;100364.09;5086714;27;45517;-75
2022/06/24 01:07:41;;;;;;;;;4.33;4.33;;;;;24.04;62.55;100359.50;5081839;28;45345;-75
2022/06/24 01:10:09;;;;;;;;;4.00;4.00;;;;;24.03;62.32;100355.94;5081633;28;46435;-75
2022/06/24 01:12:35;;;;;;;;;6.00;6.00;;;;;23.99;62.24;100354.88;5081593;28;45196;-75
2022/06/24 01:15:02;;;;;;;;;4.33;4.00;;;;;23.94;61.85;100355.69;5081639;28;45221;-75
2022/06/24 01:17:28;;;;;;;;;4.33;4.33;;;;;23.93;62.56;100358.69;5081457;28;45540;-75
2022/06/24 01:19:53;;;;;;;;;5.00;5.00;;;;;23.97;62.55;100362.47;5063139;28;47239;-74
2022/06/24 01:22:24;;;;;;;;;5.00;5.00;;;;;23.98;62.53;100366.00;5063327;28;45368;-75
2022/06/24 01:24:50;;;;;;;;;7.00;5.67;;;;;23.99;62.79;100367.63;5063374;28;45265;-74
2022/06/24 01:27:15;;;;;;;;;7.00;5.33;;;;;23.91;63.13;100363.59;5081466;28;45470;-75
2022/06/24 01:29:41;;;;;;;;;5.33;5.33;;;;;23.94;63.55;100366.56;5081709;28;46311;-75
2022/06/24 01:32:07;;;;;;;;;6.67;6.00;;;;;23.90;64.20;100362.75;5081248;28;45307;-75
2022/06/24 01:34:32;;;;;;;;;6.00;6.00;;;;;23.85;65.10;100365.47;5081821;28;45179;-74
2022/06/24 01:36:58;;;;;;;;;5.67;5.67;;;;;23.77;65.72;100368.75;5081250;28;45233;-75
2022/06/24 01:39:23;;;;;;;;;5.00;5.00;;;;;23.64;66.59;100362.00;5061179;28;47241;-74
2022/06/24 01:41:49;;;;;;;;;7.00;5.67;;;;;23.58;67.78;100367.41;5071439;28;45350;-73
2022/06/24 01:44:15;;;;;;;;;5.00;5.00;;;;;23.53;67.84;100363.88;5081123;28;45568;-75
2022/06/24 01:46:40;;;;;;;;;5.67;5.67;;;;;23.41;68.64;100364.94;5080770;28;45276;-73
2022/06/24 01:49:06;;;;;;;;;7.00;7.00;;;;;23.40;69.71;100373.38;5081216;28;46266;-73
2022/06/24 01:51:33;;;;;;;;;5.00;5.00;;;;;23.28;69.54;100365.44;5081301;28;45232;-75
2022/06/24 01:53:58;;;;;;;;;5.00;5.00;;;;;23.19;70.13;100365.97;5081373;28;45382;-73
2022/06/24 01:56:24;;;;;;;;;7.00;7.00;;;;;23.10;69.89;100370.28;5080904;28;46337;-73
2022/06/24 01:58:49;;;;;;;;;6.00;6.00;;;;;23.03;69.97;100373.28;5081148;28;46081;-74
2022/06/24 02:01:15;;;;;;;;;7.33;7.33;;;;;22.83;70.82;100357.75;5080813;28;45229;-73
2022/06/24 02:03:40;;;;;;;;;5.00;5.00;;;;;22.87;72.13;100380.56;5062597;28;45308;-72
2022/06/24 02:06:08;;;;;;;;;7.67;6.33;;;;;22.79;73.36;100387.28;5070107;27;45939;-72
2022/06/24 02:08:34;;;;;;;;;6.33;6.33;;;;;22.68;73.26;100382.91;5080961;28;45339;-74
2022/06/24 02:13:45;;;;;;;;;7.33;7.33;;;;;22.58;74.80;100383.69;5081027;28;45298;-73
2022/06/24 02:16:11;;;;;;;;;5.67;5.67;;;;;22.52;74.93;100379.28;5061267;28;46197;-73
2022/06/24 02:18:37;;;;;;;;;6.33;6.33;;;;;22.50;75.06;100382.25;5080326;28;45366;-73
2022/06/24 02:21:03;;;;;;;;;6.67;6.67;;;;;22.51;75.29;100388.50;5080833;28;45413;-73
2022/06/24 02:23:28;;;;;;;;;7.00;7.00;;;;;22.44;74.78;100386.00;5061628;28;45349;-74
2022/06/24 02:25:55;;;;;;;;;8.67;7.33;;;;;22.35;75.40;100382.19;5069685;28;45424;-74
2022/06/24 02:28:20;;;;;;;;;7.67;6.67;;;;;22.27;75.81;100373.47;5080330;28;45341;-73
2022/06/24 02:30:47;;;;;;;;;6.00;6.00;;;;;22.35;75.85;100382.19;5080313;28;45200;-73
2022/06/24 02:33:13;;;;;;;;;7.33;6.67;;;;;22.30;76.36;100377.56;5080529;28;45233;-74
2022/06/24 02:35:40;;;;;;;;;7.67;7.67;;;;;22.26;75.91;100381.84;5064818;28;47213;-73
2022/06/24 02:38:06;;;;;;;;;6.67;6.67;;;;;22.21;77.67;100390.78;5080495;28;45418;-72
2022/06/24 02:40:47;;;;;;;;;9.00;9.00;;;;;22.07;78.88;100391.25;5080221;28;45399;-72
2022/06/24 02:43:17;;;;;;;;;8.00;8.00;;;;;21.90;83.51;100406.78;5080679;28;45462;-72
2022/06/24 02:45:43;;;;;;;;;8.00;8.00;;;;;21.83;82.70;100407.00;5079904;28;45386;-73
2022/06/24 02:48:09;;;;;;;;;8.67;7.67;;;;;21.78;80.85;100399.66;5080298;28;45395;-73
2022/06/24 02:50:42;;;;;;;;;6.33;6.33;;;;;21.78;79.73;100396.97;5080139;28;45311;-73
2022/06/24 02:53:08;;;;;;;;;7.67;7.67;;;;;21.84;80.50;100402.44;5080429;28;45313;-73
2022/06/24 02:55:33;;;;;;;;;9.00;9.00;;;;;21.78;79.85;100388.03;5079969;28;45525;-73
2022/06/24 02:57:59;;;;;;;;;8.67;8.67;;;;;21.80;79.69;100383.19;5061525;28;47083;-73
2022/06/24 03:00:24;;;;;;;;;9.00;9.00;;;;;21.79;80.13;100378.88;5080068;28;45357;-73
2022/06/24 03:02:49;;;;;;;;;7.33;7.33;;;;;21.73;80.51;100369.84;5079829;28;45219;-74
2022/06/24 03:05:14;;;;;;;;;10.33;8.67;;;;;21.77;79.84;100367.47;5063044;28;46657;-73
2022/06/24 03:07:40;;;;;;;;;10.00;8.33;;;;;21.81;80.73;100364.00;5059732;28;46082;-74
2022/06/24 03:10:06;;;;;;;;;11.00;9.00;;;;;21.81;80.27;100352.34;5059490;28;45257;-73
2022/06/24 03:12:31;;;;;;;;;9.00;8.00;;;;;21.87;80.60;100353.19;5059556;28;45335;-73
2022/06/24 03:14:56;;;;;;;;;8.33;8.00;;;;;21.82;79.42;100337.78;5059569;28;45642;-73
2022/06/24 03:17:22;;;;;;;;;9.33;9.33;;;;;21.84;80.46;100326.69;5059334;28;45342;-73
2022/06/24 03:19:47;;;;;;;;;9.67;8.00;;;;;21.85;79.59;100341.84;5059522;28;45291;-72
2022/06/24 03:22:12;;;;;;;;;9.00;7.00;;;;;21.79;79.89;100336.38;5058081;28;45276;-72
2022/06/24 03:24:37;;;;;;;;;8.00;8.00;;;;;21.76;80.36;100336.09;5059379;28;45320;-73
2022/06/24 03:27:03;;;;;;;;;10.00;9.00;;;;;21.72;80.45;100332.25;5057157;28;47107;-72
2022/06/24 03:29:30;;;;;;;;;8.00;8.00;;;;;21.74;80.48;100344.44;5059267;28;45167;-73
2022/06/24 03:31:56;;;;;;;;;8.00;8.00;;;;;21.69;80.48;100337.09;5059433;28;45260;-74
2022/06/24 03:34:21;;;;;;;;;7.33;7.33;;;;;21.70;80.41;100332.53;5057759;28;46105;-73
2022/06/24 03:36:46;;;;;;;;;8.00;8.00;;;;;21.71;79.93;100336.84;5059270;28;45543;-73
2022/06/24 03:39:12;;;;;;;;;10.33;8.00;;;;;21.65;80.69;100324.38;5057767;28;45853;-74
2022/06/24 03:41:37;;;;;;;;;9.67;9.00;;;;;21.65;80.60;100327.91;5059377;28;45436;-73
2022/06/24 03:44:02;;;;;;;;;9.33;9.00;;;;;21.61;80.18;100326.75;5059053;28;45434;-74
2022/06/24 03:46:28;;;;;;;;;8.00;8.00;;;;;21.66;80.85;100343.03;5058727;28;45303;-74
2022/06/24 03:48:53;;;;;;;;;9.00;9.00;;;;;21.61;81.45;100334.06;5059253;28;45395;-73
2022/06/24 03:51:19;;;;;;;;;7.67;7.67;;;;;21.64;80.86;100338.97;5059208;28;45362;-73
2022/06/24 03:53:44;;;;;;;;;8.67;8.67;;;;;21.61;81.07;100345.69;5059204;28;45513;-73
2022/06/24 03:56:10;;;;;;;;;7.67;7.67;;;;;21.55;81.48;100336.72;5058951;28;46538;-73
2022/06/24 03:58:35;;;;;;;;;7.00;7.00;;;;;21.46;81.33;100332.06;5059126;28;45462;-73
2022/06/24 04:01:01;;;;;;;;;9.33;9.00;;;;;21.55;81.93;100358.34;5058799;28;45338;-74
2022/06/24 04:03:27;;;;;;;;;7.67;7.67;;;;;21.46;81.97;100342.88;5058843;28;45349;-73
2022/06/24 04:05:52;;;;;;;;;7.67;7.67;;;;;21.52;81.88;100361.56;5062299;28;47238;-73
2022/06/24 04:08:18;;;;;;;;;9.00;9.00;;;;;21.44;81.72;100357.47;5058685;28;48146;-74
2022/06/24 04:10:43;;;;;;;;;11.50;9.00;;;;;21.41;82.29;100366.09;5058919;28;45449;-73
2022/06/24 04:13:08;;;;;;;;;8.00;8.00;;;;;21.44;81.59;100372.84;5057397;28;45882;-74
2022/06/24 04:15:33;;;;;;;;;9.00;9.00;;;;;21.42;81.48;100377.69;5058804;28;46385;-74
2022/06/24 04:17:59;;;;;;;;;7.67;7.67;;;;;21.27;81.82;100356.75;5058657;28;45401;-75
2022/06/24 04:20:24;;;;;;;;;8.67;8.67;;;;;21.36;81.95;100371.44;5058916;28;45280;-74
2022/06/24 04:22:50;;;;;;;;;9.00;8.67;;;;;21.29;81.89;100360.84;5058074;28;45354;-73
2022/06/24 04:25:16;;;;;;;;;8.00;8.00;;;;;21.28;81.84;100361.91;5058420;28;45272;-73
2022/06/24 04:27:41;;;;;;;;;10.00;8.67;;;;;21.30;82.29;100367.88;5058134;28;45461;-74
2022/06/24 04:30:09;;;;;;;;;9.67;9.67;;;;;21.31;82.32;100364.09;5057497;28;45386;-73
2022/06/24 04:32:34;;;;;;;;;10.33;10.33;;;;;21.30;81.42;100348.94;5058438;28;46524;-73
2022/06/24 04:35:00;;;;;;;;;9.00;8.00;;;;;21.27;81.64;100356.75;5057808;28;45247;-75
2022/06/24 04:37:26;;;;;;;;;8.33;8.33;;;;;21.27;81.59;100362.97;5056883;28;45684;-73
2022/06/24 04:39:51;;;;;;;;;7.33;7.33;;;;;21.23;81.44;100353.75;5058942;28;45299;-73
2022/06/24 04:42:16;;;;;;;;;9.33;9.33;;;;;21.15;80.85;100351.50;5061852;28;45679;-73
2022/06/24 04:44:42;;;;;;;;;11.33;10.33;;;;;21.17;81.29;100362.88;5061980;28;45440;-73
2022/06/24 04:47:07;;;;;;;;;10.33;10.33;;;;;21.14;82.29;100366.09;5061490;28;45415;-73
2022/06/24 04:49:33;;;;;;;;;9.33;9.33;;;;;21.14;82.32;100368.78;5061940;28;45295;-73
2022/06/24 04:51:59;;;;;;;;;8.67;8.67;;;;;21.12;82.70;100369.03;5061670;28;45433;-73
2022/06/24 04:54:24;;;;;;;;;11.00;11.00;;;;;21.13;82.94;100373.38;5054374;28;45391;-73
2022/06/24 04:56:50;;;;;;;;;9.00;9.00;;;;;21.03;82.66;100357.88;5059784;28;45434;-73
2022/06/24 04:59:15;;;;;;;;;12.33;12.00;;;;;21.11;83.34;100372.00;5061193;28;45457;-73
2022/06/24 05:01:41;;;;;;;;;7.67;7.67;;;;;21.13;83.42;100373.38;5061204;28;45433;-73
2022/06/24 05:04:06;;;;;;;;;8.33;8.00;;;;;21.15;83.69;100373.94;5063393;27;47909;-73
2022/06/24 05:06:32;;;;;;;;;12.00;11.00;;;;;21.18;83.90;100368.03;5084141;27;45292;-73
2022/06/24 05:08:57;;;;;;;;;11.33;11.33;;;;;21.08;84.08;100346.31;5063759;28;45326;-73
2022/06/24 05:11:23;;;;;;;;;11.67;11.67;;;;;21.19;83.99;100358.03;5081556;28;45362;-74
2022/06/24 05:13:49;;;;;;;;;14.00;12.33;;;;;21.21;84.67;100365.88;5063406;28;47299;-75
2022/06/24 05:16:14;;;;;;;;;13.33;12.67;;;;;21.33;84.47;100377.34;5081286;28;45249;-74
2022/06/24 05:18:40;;;;;;;;;12.00;12.00;;;;;21.34;84.16;100367.38;5081356;28;45358;-74
2022/06/24 05:21:05;;;;;;;;;13.33;12.33;;;;;21.38;84.37;100373.88;5081544;28;45474;-74
2022/06/24 05:23:30;;;;;;;;;14.67;14.67;;;;;21.46;84.29;100375.31;5081339;28;45216;-74
2022/06/24 05:25:56;;;;;;;;;15.67;14.00;;;;;21.44;84.74;100368.28;5081516;28;45217;-74
2022/06/24 05:28:21;;;;;;;;;14.00;13.67;;;;;21.48;83.45;100365.03;5081274;28;45276;-74
2022/06/24 05:30:47;;;;;;;;;12.33;12.00;;;;;21.53;83.72;100368.63;5081340;28;45300;-74
2022/06/24 05:33:12;;;;;;;;;11.67;11.67;;;;;21.49;84.29;100361.28;5062949;28;48189;-74
2022/06/24 05:35:37;;;;;;;;;11.00;11.00;;;;;21.61;83.65;100363.81;5081104;28;45170;-74
2022/06/24 05:38:03;;;;;;;;;12.50;12.00;;;;;21.64;83.86;100360.59;5081040;28;45401;-74
2022/06/24 05:40:28;;;;;;;;;14.33;12.33;;;;;21.66;83.61;100364.66;5081674;28;45159;-74
2022/06/24 05:42:53;;;;;;;;;14.67;14.67;;;;;21.73;83.84;100369.84;5062654;28;47094;-74
2022/06/24 05:45:20;;;;;;;;;12.33;12.33;;;;;21.70;83.24;100356.88;5081326;28;45354;-72
2022/06/24 05:47:45;;;;;;;;;13.33;13.33;;;;;21.75;83.51;100365.03;5081030;28;45436;-72
2022/06/24 05:50:10;;;;;;;;;14.67;14.00;;;;;21.79;83.35;100360.72;5080874;28;45380;-77
2022/06/24 05:55:20;;;;;;;;;14.00;14.00;;;;;21.85;82.76;100369.69;5069466;28;45347;-73
2022/06/24 05:57:46;;;;;;;;;11.67;11.67;;;;;21.86;83.66;100367.81;5080959;28;45425;-74
2022/06/24 06:00:11;;;;;;;;;12.00;12.00;;;;;21.87;83.39;100358.59;5081093;28;45439;-74
2022/06/24 06:02:37;;;;;;;;;15.33;15.00;;;;;21.95;82.64;100374.38;5080564;28;45294;-75
2022/06/24 06:05:02;;;;;;;;;14.00;14.00;;;;;22.02;83.08;100382.25;5086056;27;45366;-74
2022/06/24 06:07:27;;;;;;;;;13.33;13.33;;;;;22.03;83.16;100379.28;5062469;28;45653;-74
2022/06/24 06:09:53;;;;;;;;;10.00;10.00;;;;;22.04;82.77;100380.09;5061899;28;56929;-74
2022/06/24 06:12:18;;;;;;;;;13.00;13.00;;;;;22.01;82.46;100373.34;5078860;28;48099;-74
2022/06/24 06:14:44;;;;;;;;;14.67;14.67;;;;;22.04;82.17;100378.22;5080483;28;45445;-75
2022/06/24 06:17:10;;;;;;;;;15.00;14.00;;;;;22.06;82.93;100376.06;5061120;28;45229;-75
2022/06/24 06:19:36;;;;;;;;;16.67;15.67;;;;;22.12;82.12;100382.31;5075493;28;45931;-75
2022/06/24 06:22:02;;;;;;;;;12.00;12.00;;;;;22.16;82.84;100388.03;5078789;28;46086;-75
2022/06/24 06:24:29;;;;;;;;;15.33;14.67;;;;;22.12;82.58;100370.69;5080789;28;45338;-75
2022/06/24 06:26:54;;;;;;;;;14.67;14.67;;;;;22.18;81.96;100380.47;5080546;28;45557;-74
2022/06/24 06:29:19;;;;;;;;;17.33;17.00;;;;;22.19;81.67;100382.09;5080385;28;45479;-75
2022/06/24 06:31:45;;;;;;;;;16.00;16.00;;;;;22.17;82.05;100381.53;5062019;28;46634;-75
2022/06/24 06:34:10;;;;;;;;;18.33;17.67;;;;;22.18;82.36;100381.28;5080554;28;45241;-76
2022/06/24 06:36:35;;;;;;;;;18.33;16.67;;;;;22.24;82.17;100389.44;5062412;28;45426;-77
2022/06/24 06:39:01;;;;;;;;;17.00;17.00;;;;;22.30;82.05;100391.91;5080357;28;45454;-77
2022/06/24 06:41:26;;;;;;;;;17.67;16.67;;;;;22.32;81.20;100389.75;5080192;28;46131;-77
2022/06/24 06:43:51;;;;;;;;;14.67;14.67;;;;;22.44;81.30;100402.25;5061872;28;45439;-78
2022/06/24 06:46:17;;;;;;;;;17.00;15.67;;;;;22.43;80.95;100398.75;5080258;28;45383;-77
2022/06/24 06:48:42;;;;;;;;;16.67;16.67;;;;;22.43;80.97;100398.75;5079906;28;45469;-75
2022/06/24 06:51:07;;;;;;;;;15.67;15.00;;;;;22.51;81.39;100410.97;5080227;28;45508;-75
2022/06/24 06:53:33;;;;;;;;;14.33;14.33;;;;;22.48;81.03;100394.44;5080222;28;45435;-78
2022/06/24 06:55:58;;;;;;;;;16.67;13.67;;;;;22.53;81.17;100413.41;5078377;28;45420;-75
2022/06/24 06:58:24;;;;;;;;;11.33;11.33;;;;;22.54;80.90;100415.06;5079275;28;45380;-75
2022/06/24 07:00:50;;;;;;;;;12.33;12.00;;;;;22.56;80.79;100416.41;5079618;28;45335;-75
2022/06/24 07:03:15;;;;;;;;;15.00;13.67;;;;;22.59;79.93;100409.69;5078745;28;45220;-75
2022/06/24 07:05:42;;;;;;;;;11.67;11.67;;;;;22.61;79.79;100412.13;5066424;28;45323;-75
2022/06/24 07:08:09;;;;;;;;;11.33;11.33;;;;;22.58;79.13;100410.75;5079714;28;45285;-75
2022/06/24 07:10:35;;;;;;;;;11.00;11.00;;;;;22.51;79.11;100410.97;5079771;28;46258;-74
2022/06/24 07:13:00;;;;;;;;;11.00;10.00;;;;;22.40;78.97;100403.88;5079495;28;45374;-75
2022/06/24 07:15:25;;;;;;;;;10.00;10.00;;;;;22.33;78.48;100394.09;5079343;28;45281;-75
2022/06/24 07:17:50;;;;;;;;;9.33;9.33;;;;;22.36;79.02;100387.34;5079014;28;45673;-76
2022/06/24 07:20:16;;;;;;;;;10.67;10.00;;;;;22.37;79.38;100396.28;5079310;28;45376;-76
2022/06/24 07:22:41;;;;;;;;;13.00;13.00;;;;;22.43;78.63;100409.59;5068418;28;45363;-75
2022/06/24 07:25:07;;;;;;;;;11.00;11.00;;;;;22.43;79.80;100408.75;5079272;28;46023;-73
2022/06/24 07:27:32;;;;;;;;;10.00;10.00;;;;;22.46;79.35;100421.78;5060563;28;47222;-76
2022/06/24 07:29:58;;;;;;;;;13.67;12.00;;;;;22.43;79.15;100400.63;5076684;28;45546;-77
2022/06/24 07:32:23;;;;;;;;;10.67;10.67;;;;;22.48;78.92;100407.97;5077652;28;45397;-74
2022/06/24 07:34:49;;;;;;;;;10.67;10.67;;;;;22.52;79.54;100401.78;5077406;28;45507;-77
2022/06/24 07:37:14;;;;;;;;;11.00;8.33;;;;;22.59;80.31;100406.97;5077566;28;49752;-76
2022/06/24 07:39:39;;;;;;;;;9.00;9.00;;;;;22.66;80.22;100402.13;5058839;28;47467;-75
2022/06/24 07:42:05;;;;;;;;;9.00;9.00;;;;;22.77;78.39;100407.56;5078586;28;45315;-75
2022/06/24 07:44:30;;;;;;;;;8.67;8.00;;;;;22.80;78.12;100407.88;5078752;28;45343;-76
2022/06/24 07:46:57;;;;;;;;;7.00;7.00;;;;;22.85;77.32;100398.13;5064045;27;47456;-76
2022/06/24 07:49:22;;;;;;;;;11.33;9.67;;;;;22.89;77.47;100396.50;5078099;28;46182;-74
2022/06/24 07:51:48;;;;;;;;;10.00;9.67;;;;;22.86;76.83;100386.25;5078584;28;45323;-76
2022/06/24 07:54:13;;;;;;;;;7.67;7.67;;;;;22.98;77.00;100396.84;5076790;28;46305;-76
2022/06/24 07:56:57;;;;;;;;;8.67;8.00;;;;;23.03;77.53;100394.13;5078448;28;45287;-76
2022/06/24 07:59:30;;;;;;;;;8.00;8.00;;;;;23.02;76.92;100389.81;5059815;28;48216;-74
2022/06/24 08:01:57;;;;;;;;;10.00;10.00;;;;;23.00;77.31;100390.06;5078500;28;45327;-75
2022/06/24 08:04:24;;;;;;;;;6.00;6.00;;;;;23.01;77.05;100382.75;5079397;27;45709;-75
2022/06/24 08:06:50;;;;;;;;;6.33;6.33;;;;;23.02;76.40;100387.88;5060953;28;45253;-75
2022/06/24 08:09:30;;;;;;;;;7.00;7.00;;;;;22.99;76.98;100393.03;5065454;28;45664;-75
2022/06/24 08:11:56;;;;;;;;;4.33;4.33;;;;;22.99;77.42;100387.63;5073546;28;45543;-74
2022/06/24 08:14:21;;;;;;;;;7.67;6.67;;;;;22.94;76.74;100388.41;5075777;28;45384;-76
2022/06/24 08:16:47;;;;;;;;;9.33;8.67;;;;;22.87;77.50;100375.13;5070953;28;45498;-74
2022/06/24 08:19:13;;;;;;;;;9.00;8.33;;;;;22.86;77.17;100387.03;5078493;28;45323;-76
2022/06/24 08:21:38;;;;;;;;;6.67;6.67;;;;;22.88;77.36;100379.47;5072977;28;47142;-75
2022/06/24 08:24:04;;;;;;;;;7.33;7.33;;;;;22.94;78.46;100383.00;5080211;28;45491;-76
2022/06/24 08:26:30;;;;;;;;;7.67;7.67;;;;;22.98;77.32;100375.16;5073349;28;45346;-76
2022/06/24 08:28:55;;;;;;;;;6.67;6.67;;;;;23.06;76.58;100380.88;5072116;28;45400;-75
2022/06/24 08:31:21;;;;;;;;;6.00;6.00;;;;;23.18;76.51;100386.03;5081130;28;45352;-75
2022/06/24 08:33:47;;;;;;;;;5.00;5.00;;;;;23.32;75.28;100385.53;5059593;28;45378;-75
2022/06/24 08:36:12;;;;;;;;;8.67;7.33;;;;;23.36;75.30;100383.06;5081161;28;45354;-76
2022/06/24 08:38:37;;;;;;;;;9.33;9.33;;;;;23.39;75.48;100391.53;5081840;28;45981;-75
2022/06/24 08:41:04;;;;;;;;;7.33;7.00;;;;;23.43;74.55;100380.94;5081608;28;45323;-76
2022/06/24 08:43:32;;;;;;;;;6.00;6.00;;;;;23.50;72.41;100375.25;5063753;28;45442;-77
2022/06/24 08:45:59;;;;;;;;;5.00;5.00;;;;;23.52;70.94;100357.63;5080942;28;45626;-78
2022/06/24 08:48:28;;;;;;;;;5.00;5.00;;;;;23.60;72.76;100358.16;5080644;28;46277;-76
2022/06/24 08:50:54;;;;;;;;;7.00;7.00;;;;;23.70;72.94;100372.53;5063761;28;45509;-75
2022/06/24 08:53:26;;;;;;;;;6.00;5.33;;;;;23.68;70.16;100369.28;5077731;28;45369;-74
2022/06/24 08:55:52;;;;;;;;;6.00;6.00;;;;;23.60;71.50;100360.88;5056669;28;46095;-76
2022/06/24 08:58:18;;;;;;;;;4.33;4.33;;;;;23.66;70.06;100357.09;5080027;28;45342;-74
2022/06/24 09:00:44;;;;;;;;;4.67;4.67;;;;;23.69;70.67;100351.13;5078484;28;45414;-74
2022/06/24 09:03:10;;;;;;;;;6.33;6.33;;;;;23.71;69.27;100355.19;5079870;28;45481;-75
2022/06/24 09:05:36;;;;;;;;;6.00;6.00;;;;;23.71;70.82;100357.09;5080164;27;45336;-75
2022/06/24 09:08:06;;;;;;;;;6.00;6.00;;;;;23.81;70.60;100354.38;5080997;28;45558;-73
2022/06/24 09:10:33;;;;;;;;;7.00;6.33;;;;;23.92;69.98;100346.22;5081601;28;45454;-76
2022/06/24 09:12:59;;;;;;;;;5.33;5.33;;;;;24.02;69.55;100337.22;5081409;28;45786;-74
2022/06/24 09:15:25;;;;;;;;;7.00;5.00;;;;;24.16;69.33;100342.94;5059304;28;47083;-76
2022/06/24 09:17:50;;;;;;;;;9.00;6.33;;;;;24.17;66.77;100328.25;5071796;28;45348;-75
2022/06/24 09:20:19;;;;;;;;;6.00;6.00;;;;;24.23;67.29;100331.78;5080772;28;45345;-74
2022/06/24 09:22:45;;;;;;;;;5.67;5.33;;;;;24.18;66.54;100319.06;5081025;28;45446;-75
2022/06/24 09:25:10;;;;;;;;;6.67;6.67;;;;;24.23;66.40;100321.72;5080026;28;45349;-76
2022/06/24 09:27:43;;;;;;;;;5.00;5.00;;;;;24.30;66.18;100316.81;5080347;28;45793;-75
2022/06/24 09:30:10;;;;;;;;;5.33;5.00;;;;;24.33;65.63;100321.69;5080728;28;45474;-75
2022/06/24 09:32:48;;;;;;;;;6.00;6.00;;;;;24.25;65.60;100294.31;5078359;28;45587;-76
2022/06/24 09:35:14;;;;;;;;;6.00;6.00;;;;;24.31;66.29;100296.75;5059465;28;46310;-76
2022/06/24 09:37:45;;;;;;;;;5.33;5.33;;;;;24.46;65.01;100314.03;5078473;28;45278;-74
2022/06/24 09:40:15;;;;;;;;;4.00;4.00;;;;;24.48;64.55;100300.97;5076378;27;45590;-74
2022/06/24 09:42:40;;;;;;;;;4.00;4.00;;;;;24.52;64.15;100299.34;5079099;28;45531;-75
2022/06/24 09:45:06;;;;;;;;;2.67;2.67;;;;;24.63;64.28;100304.72;5079251;28;45569;-75
2022/06/24 09:47:39;;;;;;;;;5.67;5.67;;;;;24.73;64.02;100306.56;5079139;28;46176;-75
2022/06/24 09:50:05;;;;;;;;;3.00;3.00;;;;;24.75;64.82;100298.97;5080532;28;45393;-74
2022/06/24 09:52:31;;;;;;;;;5.00;5.00;;;;;24.75;63.14;100294.31;5081002;28;45279;-76
2022/06/24 09:54:57;;;;;;;;;5.67;5.33;;;;;24.69;64.01;100290.03;5077675;28;46250;-74
2022/06/24 09:57:23;;;;;;;;;4.00;4.00;;;;;24.66;62.76;100287.88;5080479;28;45293;-74
2022/06/24 10:02:34;;;;;;;;;4.00;3.00;;;;;24.69;61.96;100287.31;5080988;28;45345;-73
2022/06/24 10:05:02;;;;;;;;;4.00;4.00;;;;;24.59;61.39;100271.88;5066658;28;47320;-74
2022/06/24 10:07:32;;;;;;;;;3.00;3.00;;;;;24.67;62.90;100279.44;5081214;28;45735;-75
2022/06/24 10:10:02;;;;;;;;;2.33;2.33;;;;;24.79;61.89;100287.25;5080911;28;45476;-73
2022/06/24 10:12:29;;;;;;;;;1.33;1.33;;;;;24.96;61.79;100281.44;5080942;28;45337;-74
2022/06/24 10:14:58;;;;;;;;;5.00;2.00;;;;;25.07;60.29;100289.53;5080845;28;45280;-74
2022/06/24 10:17:25;;;;;;;;;3.00;3.00;;;;;25.04;58.35;100293.63;5062552;28;47345;-75
2022/06/24 10:19:51;;;;;;;;;4.00;3.00;;;;;25.06;56.21;100287.91;5080872;28;45346;-74
2022/06/24 10:22:42;;;;;;;;;3.00;3.00;;;;;25.13;57.89;100273.97;5081098;28;45279;-73
2022/06/24 10:25:08;;;;;;;;;4.00;3.00;;;;;25.16;58.62;100281.56;5078235;28;46181;-74
2022/06/24 10:27:58;;;;;;;;;1.00;1.00;;;;;25.23;58.50;100273.09;5080439;28;45297;-72
2022/06/24 10:30:48;;;;;;;;;1.67;1.67;;;;;25.31;58.20;100272.47;5079944;28;45361;-74
2022/06/24 10:33:21;;;;;;;;;1.00;1.00;;;;;25.50;58.77;100274.50;5078212;28;45519;-74
2022/06/24 10:36:03;;;;;;;;;2.00;2.00;;;;;25.59;56.52;100278.22;5077969;28;45320;-75
2022/06/24 10:38:41;;;;;;;;;2.00;2.00;;;;;25.66;57.55;100267.00;5064475;28;48043;-75
2022/06/24 10:41:11;;;;;;;;;0.33;0.33;;;;;25.73;56.23;100253.06;5080941;28;45355;-75
2022/06/24 10:43:42;;;;;;;;;2.00;2.00;;;;;25.75;55.07;100264.47;5079884;28;45405;-75
2022/06/24 10:46:13;;;;;;;;;2.67;2.67;;;;;25.82;55.60;100268.47;5079788;28;45293;-74
2022/06/24 10:48:56;;;;;;;;;3.00;3.00;;;;;25.78;56.20;100259.28;5061161;28;46168;-76
2022/06/24 10:51:22;;;;;;;;;2.33;2.33;;;;;25.73;56.52;100251.16;5077296;28;45667;-75
2022/06/24 10:54:02;;;;;;;;;2.00;2.00;;;;;25.70;56.10;100268.88;5067657;28;45357;-77
2022/06/24 10:56:48;;;;;;;;;4.33;3.00;;;;;25.49;55.92;100253.84;5080178;28;45622;-76
2022/06/24 10:59:19;;;;;;;;;1.00;1.00;;;;;25.51;56.58;100279.66;5078034;28;46151;-75
2022/06/24 11:01:48;;;;;;;;;2.67;2.67;;;;;25.46;57.29;100275.06;5073545;28;45300;-75
2022/06/24 11:04:21;;;;;;;;;6.00;5.33;;;;;25.58;57.31;100277.41;5073863;27;45232;-76
2022/06/24 11:07:09;;;;;;;;;4.67;3.00;;;;;25.74;56.05;100265.56;5080172;28;45307;-76
2022/06/24 11:09:35;;;;;;;;;3.00;3.00;;;;;25.84;57.03;100252.66;5079780;28;45374;-75
2022/06/24 11:12:25;;;;;;;;;3.33;3.33;;;;;25.99;57.14;100250.03;5080185;28;45394;-77
2022/06/24 11:14:50;;;;;;;;;3.33;3.33;;;;;26.16;54.79;100241.41;5077845;28;45455;-76
2022/06/24 11:17:15;;;;;;;;;3.00;2.00;;;;;26.37;55.10;100241.16;5077535;28;45961;-74
2022/06/24 11:19:41;;;;;;;;;2.00;1.00;;;;;26.67;54.26;100252.72;5079938;28;45464;-77
2022/06/24 11:22:06;;;;;;;;;0.33;0.33;;;;;26.90;54.27;100245.53;5078911;28;45458;-77
2022/06/24 11:24:35;;;;;;;;;2.00;2.00;;;;;27.22;54.05;100254.88;5058452;28;45509;-77
2022/06/24 11:27:08;;;;;;;;;3.67;3.33;;;;;27.37;50.19;100249.44;5079632;28;45496;-77
2022/06/24 11:29:54;;;;;;;;;0.67;0.67;;;;;27.42;49.04;100252.06;5078594;28;45392;-75
2022/06/24 11:32:20;;;;;;;;;2.00;2.00;;;;;27.51;50.87;100258.47;5077453;28;45268;-78